sensor_id;sensor_type;location;lat;lon;timestamp;pressure;altitude;pressure_sealevel;temperature;humidity
11830;BME280;5972;42.134;24.718;2022-12-07T00:00:14;99921.69;;;7.14;100.00
11830;BME280;5972;42.134;24.718;2022-12-07T00:02:41;99917.22;;;6.70;100.00
11830;BME280;5972;42.134;24.718;2022-12-07T00:05:07;99917.16;;;6.84;100.00
11830;BME280;5972;42.134;24.718;2022-12-07T00:07:34;99922.03;;;6.82;100.00
11830;BME280;5972;42.134;24.718;2022-12-07T00:10:03;99922.47;;;6.75;100.00
11830;BME280;5972;42.134;24.718;2022-12-07T00:12:30;99918.72;;;6.85;100.00
11830;BME280;5972;42.134;24.718;2022-12-07T00:14:57;99920.34;;;6.94;100.00
11830;BME280;5972;42.134;24.718;2022-12-07T00:17:23;99919.13;;;7.00;100.00
11830;BME280;5972;42.134;24.718;2022-12-07T00:19:50;99921.31;;;6.98;100.00
11830;BME280;5972;42.134;24.718;2022-12-07T00:22:17;99921.00;;;7.00;100.00
11830;BME280;5972;42.134;24.718;2022-12-07T00:24:43;99917.38;;;6.96;100.00
11830;BME280;5972;42.134;24.718;2022-12-07T00:27:12;99921.16;;;6.95;100.00
11830;BME280;5972;42.134;24.718;2022-12-07T00:29:39;99921.28;;;6.90;100.00
11830;BME280;5972;42.134;24.718;2022-12-07T00:32:05;99917.59;;;6.86;100.00
11830;BME280;5972;42.134;24.718;2022-12-07T00:34:32;99923.44;;;6.79;100.00
11830;BME280;5972;42.134;24.718;2022-12-07T00:36:59;99923.69;;;6.69;100.00
11830;BME280;5972;42.134;24.718;2022-12-07T00:39:26;99922.16;;;6.77;100.00
11830;BME280;5972;42.134;24.718;2022-12-07T00:41:52;99919.84;;;6.84;100.00
11830;BME280;5972;42.134;24.718;2022-12-07T00:44:20;99919.53;;;6.85;100.00
11830;BME280;5972;42.134;24.718;2022-12-07T00:46:47;99918.09;;;6.88;100.00
11830;BME280;5972;42.134;24.718;2022-12-07T00:49:14;99916.22;;;6.88;100.00
11830;BME280;5972;42.134;24.718;2022-12-07T00:51:41;99907.50;;;6.91;100.00
11830;BME280;5972;42.134;24.718;2022-12-07T00:54:07;99906.25;;;6.89;100.00
11830;BME280;5972;42.134;24.718;2022-12-07T00:56:34;99911.78;;;6.92;100.00
11830;BME280;5972;42.134;24.718;2022-12-07T00:59:02;99878.09;;;6.64;100.00
11830;BME280;5972;42.134;24.718;2022-12-07T01:01:33;99908.28;;;6.83;100.00
11830;BME280;5972;42.134;24.718;2022-12-07T01:04:00;99907.19;;;6.84;100.00
11830;BME280;5972;42.134;24.718;2022-12-07T01:06:28;99913.34;;;6.85;100.00
11830;BME280;5972;42.134;24.718;2022-12-07T01:08:55;99911.28;;;6.82;100.00
11830;BME280;5972;42.134;24.718;2022-12-07T01:11:24;99900.16;;;6.75;100.00
11830;BME280;5972;42.134;24.718;2022-12-07T01:13:51;99899.72;;;6.81;100.00
11830;BME280;5972;42.134;24.718;2022-12-07T01:16:19;99895.94;;;6.82;100.00
11830;BME280;5972;42.134;24.718;2022-12-07T01:18:49;99891.91;;;6.71;100.00
11830;BME280;5972;42.134;24.718;2022-12-07T01:21:19;99894.06;;;6.60;100.00
11830;BME280;5972;42.134;24.718;2022-12-07T01:23:46;99898.38;;;6.70;100.00
11830;BME280;5972;42.134;24.718;2022-12-07T01:26:16;99891.63;;;6.73;100.00
11830;BME280;5972;42.134;24.718;2022-12-07T01:28:43;99899.06;;;6.76;100.00
11830;BME280;5972;42.134;24.718;2022-12-07T01:31:12;99888.94;;;6.73;100.00
11830;BME280;5972;42.134;24.718;2022-12-07T01:33:40;99880.00;;;6.63;100.00
11830;BME280;5972;42.134;24.718;2022-12-07T01:36:15;99890.09;;;6.58;100.00
11830;BME280;5972;42.134;24.718;2022-12-07T01:38:42;99889.19;;;6.62;100.00
11830;BME280;5972;42.134;24.718;2022-12-07T01:41:09;99874.31;;;6.65;100.00
11830;BME280;5972;42.134;24.718;2022-12-07T01:43:36;99837.03;;;6.41;100.00
11830;BME280;5972;42.134;24.718;2022-12-07T01:46:03;99875.56;;;6.59;100.00
11830;BME280;5972;42.134;24.718;2022-12-07T01:48:32;99857.97;;;6.53;100.00
11830;BME280;5972;42.134;24.718;2022-12-07T01:51:03;99863.03;;;6.54;100.00
11830;BME280;5972;42.134;24.718;2022-12-07T01:53:36;99864.63;;;6.55;100.00
11830;BME280;5972;42.134;24.718;2022-12-07T01:56:06;99872.41;;;6.57;100.00
11830;BME280;5972;42.134;24.718;2022-12-07T01:58:34;99864.34;;;6.57;100.00
11830;BME280;5972;42.134;24.718;2022-12-07T02:01:01;99869.22;;;6.55;100.00
11830;BME280;5972;42.134;24.718;2022-12-07T02:03:32;99869.66;;;6.48;100.00
11830;BME280;5972;42.134;24.718;2022-12-07T02:06:03;99867.91;;;6.52;100.00
11830;BME280;5972;42.134;24.718;2022-12-07T02:08:33;99868.41;;;6.54;100.00
11830;BME280;5972;42.134;24.718;2022-12-07T02:11:00;99870.28;;;6.45;100.00
11830;BME280;5972;42.134;24.718;2022-12-07T02:13:29;99872.53;;;6.52;100.00
11830;BME280;5972;42.134;24.718;2022-12-07T02:16:08;99863.69;;;6.51;100.00
11830;BME280;5972;42.134;24.718;2022-12-07T02:18:51;99857.38;;;6.56;100.00
11830;BME280;5972;42.134;24.718;2022-12-07T02:21:30;99836.59;;;6.48;100.00
11830;BME280;5972;42.134;24.718;2022-12-07T02:24:14;99843.72;;;6.52;100.00
11830;BME280;5972;42.134;24.718;2022-12-07T02:27:11;99836.28;;;6.49;100.00
11830;BME280;5972;42.134;24.718;2022-12-07T02:29:46;99843.06;;;6.47;100.00
11830;BME280;5972;42.134;24.718;2022-12-07T02:32:21;99841.28;;;6.34;100.00
11830;BME280;5972;42.134;24.718;2022-12-07T02:34:52;99833.75;;;6.44;100.00
11830;BME280;5972;42.134;24.718;2022-12-07T02:37:32;99834.47;;;6.36;100.00
11830;BME280;5972;42.134;24.718;2022-12-07T02:40:07;99835.53;;;6.26;100.00
11830;BME280;5972;42.134;24.718;2022-12-07T02:42:40;99835.59;;;6.35;100.00
11830;BME280;5972;42.134;24.718;2022-12-07T02:45:12;99834.81;;;6.35;100.00
11830;BME280;5972;42.134;24.718;2022-12-07T02:47:41;99819.28;;;6.32;100.00
11830;BME280;5972;42.134;24.718;2022-12-07T02:50:10;99836.47;;;6.53;100.00
11830;BME280;5972;42.134;24.718;2022-12-07T02:52:37;99832.88;;;6.57;100.00
11830;BME280;5972;42.134;24.718;2022-12-07T02:55:04;99830.94;;;6.58;100.00
11830;BME280;5972;42.134;24.718;2022-12-07T02:57:45;99824.72;;;6.40;100.00
11830;BME280;5972;42.134;24.718;2022-12-07T03:00:16;99812.53;;;6.43;100.00
11830;BME280;5972;42.134;24.718;2022-12-07T03:02:50;99802.41;;;6.40;100.00
11830;BME280;5972;42.134;24.718;2022-12-07T03:05:36;99812.72;;;6.15;100.00
11830;BME280;5972;42.134;24.718;2022-12-07T03:08:13;99810.94;;;6.11;100.00
11830;BME280;5972;42.134;24.718;2022-12-07T03:10:50;99821.81;;;6.28;100.00
11830;BME280;5972;42.134;24.718;2022-12-07T03:13:23;99817.09;;;6.34;100.00
11830;BME280;5972;42.134;24.718;2022-12-07T03:15:57;99818.41;;;6.45;100.00
11830;BME280;5972;42.134;24.718;2022-12-07T03:18:26;99827.78;;;6.56;100.00
11830;BME280;5972;42.134;24.718;2022-12-07T03:21:00;99780.84;;;6.31;100.00
11830;BME280;5972;42.134;24.718;2022-12-07T03:23:30;99835.28;;;6.67;100.00
11830;BME280;5972;42.134;24.718;2022-12-07T03:26:00;99839.22;;;6.70;100.00
11830;BME280;5972;42.134;24.718;2022-12-07T03:28:31;99829.13;;;6.76;100.00
11830;BME280;5972;42.134;24.718;2022-12-07T03:31:03;99829.47;;;6.83;100.00
11830;BME280;5972;42.134;24.718;2022-12-07T03:33:33;99833.75;;;6.84;100.00
11830;BME280;5972;42.134;24.718;2022-12-07T03:36:06;99829.03;;;6.89;100.00
11830;BME280;5972;42.134;24.718;2022-12-07T03:38:38;99824.75;;;6.88;100.00
11830;BME280;5972;42.134;24.718;2022-12-07T03:41:11;99820.47;;;6.79;100.00
11830;BME280;5972;42.134;24.718;2022-12-07T03:43:40;99827.81;;;6.64;100.00
11830;BME280;5972;42.134;24.718;2022-12-07T03:46:17;99829.13;;;6.67;100.00
11830;BME280;5972;42.134;24.718;2022-12-07T03:48:50;99827.88;;;6.82;100.00
11830;BME280;5972;42.134;24.718;2022-12-07T03:51:25;99821.72;;;6.81;100.00
11830;BME280;5972;42.134;24.718;2022-12-07T03:54:00;99822.06;;;6.80;100.00
11830;BME280;5972;42.134;24.718;2022-12-07T03:56:27;99814.31;;;6.87;100.00
11830;BME280;5972;42.134;24.718;2022-12-07T03:58:55;99819.47;;;6.75;100.00
11830;BME280;5972;42.134;24.718;2022-12-07T04:01:24;99821.41;;;6.43;100.00
11830;BME280;5972;42.134;24.718;2022-12-07T04:03:51;99824.06;;;6.35;100.00
11830;BME280;5972;42.134;24.718;2022-12-07T04:06:18;99821.38;;;6.35;100.00
11830;BME280;5972;42.134;24.718;2022-12-07T04:08:45;99796.88;;;6.14;100.00
11830;BME280;5972;42.134;24.718;2022-12-07T04:11:11;99816.78;;;6.35;100.00
11830;BME280;5972;42.134;24.718;2022-12-07T04:13:38;99811.41;;;6.35;100.00
11830;BME280;5972;42.134;24.718;2022-12-07T04:16:19;99817.91;;;6.43;100.00
11830;BME280;5972;42.134;24.718;2022-12-07T04:18:47;99807.97;;;6.43;100.00
11830;BME280;5972;42.134;24.718;2022-12-07T04:21:14;99816.59;;;6.32;100.00
11830;BME280;5972;42.134;24.718;2022-12-07T04:23:41;99803.38;;;6.44;100.00
11830;BME280;5972;42.134;24.718;2022-12-07T04:26:08;99809.38;;;6.41;100.00
11830;BME280;5972;42.134;24.718;2022-12-07T04:28:35;99802.75;;;6.47;100.00
11830;BME280;5972;42.134;24.718;2022-12-07T04:31:01;99795.81;;;6.46;100.00
11830;BME280;5972;42.134;24.718;2022-12-07T04:33:28;99798.97;;;6.48;100.00
11830;BME280;5972;42.134;24.718;2022-12-07T04:35:56;99802.88;;;6.42;100.00
11830;BME280;5972;42.134;24.718;2022-12-07T04:38:23;99807.28;;;6.38;100.00
11830;BME280;5972;42.134;24.718;2022-12-07T04:40:50;99805.81;;;6.23;100.00
11830;BME280;5972;42.134;24.718;2022-12-07T04:43:16;99802.31;;;6.22;100.00
11830;BME280;5972;42.134;24.718;2022-12-07T04:45:46;99801.09;;;6.29;100.00
11830;BME280;5972;42.134;24.718;2022-12-07T04:48:13;99796.97;;;6.31;100.00
11830;BME280;5972;42.134;24.718;2022-12-07T04:50:39;99803.28;;;6.26;100.00
11830;BME280;5972;42.134;24.718;2022-12-07T04:53:08;99795.06;;;6.23;100.00
11830;BME280;5972;42.134;24.718;2022-12-07T04:55:34;99794.97;;;6.06;100.00
11830;BME280;5972;42.134;24.718;2022-12-07T04:58:01;99774.06;;;5.80;100.00
11830;BME280;5972;42.134;24.718;2022-12-07T05:00:28;99805.97;;;5.96;100.00
11830;BME280;5972;42.134;24.718;2022-12-07T05:02:55;99626.91;;;4.71;100.00
11830;BME280;5972;42.134;24.718;2022-12-07T05:05:21;99808.28;;;5.89;100.00
11830;BME280;5972;42.134;24.718;2022-12-07T05:07:49;99771.16;;;5.68;100.00
11830;BME280;5972;42.134;24.718;2022-12-07T05:10:17;99817.50;;;5.96;100.00
11830;BME280;5972;42.134;24.718;2022-12-07T05:12:44;99799.13;;;5.90;100.00
11830;BME280;5972;42.134;24.718;2022-12-07T05:15:11;99813.69;;;5.97;100.00
11830;BME280;5972;42.134;24.718;2022-12-07T05:17:38;99818.25;;;5.97;100.00
11830;BME280;5972;42.134;24.718;2022-12-07T05:20:06;99811.78;;;5.98;100.00
11830;BME280;5972;42.134;24.718;2022-12-07T05:22:33;99811.78;;;5.98;100.00
11830;BME280;5972;42.134;24.718;2022-12-07T05:25:00;99811.25;;;5.87;100.00
11830;BME280;5972;42.134;24.718;2022-12-07T05:27:28;99815.22;;;5.90;100.00
11830;BME280;5972;42.134;24.718;2022-12-07T05:29:55;99821.06;;;5.92;100.00
11830;BME280;5972;42.134;24.718;2022-12-07T05:32:22;99827.75;;;5.94;100.00
11830;BME280;5972;42.134;24.718;2022-12-07T05:34:52;99830.59;;;5.98;100.00
11830;BME280;5972;42.134;24.718;2022-12-07T05:37:20;99831.41;;;5.98;100.00
11830;BME280;5972;42.134;24.718;2022-12-07T05:39:47;99826.53;;;6.00;100.00
11830;BME280;5972;42.134;24.718;2022-12-07T05:42:13;99824.13;;;5.99;100.00
11830;BME280;5972;42.134;24.718;2022-12-07T05:44:43;99828.78;;;6.07;100.00
11830;BME280;5972;42.134;24.718;2022-12-07T05:47:11;99826.75;;;6.12;100.00
11830;BME280;5972;42.134;24.718;2022-12-07T05:49:38;99824.41;;;6.19;100.00
11830;BME280;5972;42.134;24.718;2022-12-07T05:52:05;99817.34;;;6.23;100.00
11830;BME280;5972;42.134;24.718;2022-12-07T05:54:32;99822.97;;;6.13;100.00
11830;BME280;5972;42.134;24.718;2022-12-07T05:56:59;99825.34;;;6.15;100.00
11830;BME280;5972;42.134;24.718;2022-12-07T05:59:26;99842.81;;;6.26;100.00
11830;BME280;5972;42.134;24.718;2022-12-07T06:01:56;99825.94;;;6.34;100.00
11830;BME280;5972;42.134;24.718;2022-12-07T06:04:24;99830.25;;;6.44;100.00
11830;BME280;5972;42.134;24.718;2022-12-07T06:06:51;99829.16;;;6.45;100.00
11830;BME280;5972;42.134;24.718;2022-12-07T06:09:19;99833.47;;;6.54;100.00
11830;BME280;5972;42.134;24.718;2022-12-07T06:11:46;99827.16;;;6.59;100.00
11830;BME280;5972;42.134;24.718;2022-12-07T06:14:30;99806.06;;;6.44;100.00
11830;BME280;5972;42.134;24.718;2022-12-07T06:16:59;99840.97;;;6.66;100.00
11830;BME280;5972;42.134;24.718;2022-12-07T06:19:26;99831.66;;;6.72;100.00
11830;BME280;5972;42.134;24.718;2022-12-07T06:21:53;99834.22;;;6.77;100.00
11830;BME280;5972;42.134;24.718;2022-12-07T06:24:20;99838.69;;;6.90;100.00
11830;BME280;5972;42.134;24.718;2022-12-07T06:26:47;99834.94;;;7.00;100.00
11830;BME280;5972;42.134;24.718;2022-12-07T06:29:16;99797.38;;;6.86;100.00
11830;BME280;5972;42.134;24.718;2022-12-07T06:31:43;99835.13;;;7.12;100.00
11830;BME280;5972;42.134;24.718;2022-12-07T06:34:14;99836.56;;;7.18;100.00
11830;BME280;5972;42.134;24.718;2022-12-07T06:36:41;99831.81;;;7.24;100.00
11830;BME280;5972;42.134;24.718;2022-12-07T06:39:08;99843.25;;;7.29;100.00
11830;BME280;5972;42.134;24.718;2022-12-07T06:41:35;99832.63;;;7.33;100.00
11830;BME280;5972;42.134;24.718;2022-12-07T06:44:03;99840.25;;;7.48;100.00
11830;BME280;5972;42.134;24.718;2022-12-07T06:46:30;99839.09;;;7.23;100.00
11830;BME280;5972;42.134;24.718;2022-12-07T06:48:57;99851.13;;;7.26;100.00
11830;BME280;5972;42.134;24.718;2022-12-07T06:51:25;99856.50;;;7.26;100.00
11830;BME280;5972;42.134;24.718;2022-12-07T06:53:52;99840.66;;;7.16;100.00
11830;BME280;5972;42.134;24.718;2022-12-07T06:56:19;99837.34;;;7.19;100.00
11830;BME280;5972;42.134;24.718;2022-12-07T06:58:46;99846.72;;;7.47;100.00
11830;BME280;5972;42.134;24.718;2022-12-07T07:01:14;99847.88;;;7.63;100.00
11830;BME280;5972;42.134;24.718;2022-12-07T07:03:43;99839.94;;;7.75;100.00
11830;BME280;5972;42.134;24.718;2022-12-07T07:06:10;99833.28;;;7.81;100.00
11830;BME280;5972;42.134;24.718;2022-12-07T07:08:39;99831.56;;;7.77;100.00
11830;BME280;5972;42.134;24.718;2022-12-07T07:11:08;99823.31;;;7.90;100.00
11830;BME280;5972;42.134;24.718;2022-12-07T07:13:35;99837.38;;;8.22;100.00
11830;BME280;5972;42.134;24.718;2022-12-07T07:16:02;99835.16;;;8.41;100.00
11830;BME280;5972;42.134;24.718;2022-12-07T07:18:29;99837.34;;;8.56;100.00
11830;BME280;5972;42.134;24.718;2022-12-07T07:20:58;99841.41;;;8.71;100.00
11830;BME280;5972;42.134;24.718;2022-12-07T07:23:26;99846.59;;;8.76;100.00
11830;BME280;5972;42.134;24.718;2022-12-07T07:25:54;99850.97;;;8.98;100.00
11830;BME280;5972;42.134;24.718;2022-12-07T07:28:21;99848.66;;;9.17;100.00
11830;BME280;5972;42.134;24.718;2022-12-07T07:30:48;99844.00;;;9.26;100.00
11830;BME280;5972;42.134;24.718;2022-12-07T07:33:14;99836.97;;;9.34;100.00
11830;BME280;5972;42.134;24.718;2022-12-07T07:35:41;99831.69;;;9.37;100.00
11830;BME280;5972;42.134;24.718;2022-12-07T07:38:08;99839.47;;;9.39;100.00
11830;BME280;5972;42.134;24.718;2022-12-07T07:40:35;99840.88;;;9.45;100.00
11830;BME280;5972;42.134;24.718;2022-12-07T07:43:03;99845.09;;;9.54;100.00
11830;BME280;5972;42.134;24.718;2022-12-07T07:45:30;99854.56;;;9.60;100.00
11830;BME280;5972;42.134;24.718;2022-12-07T07:47:57;99855.41;;;9.02;100.00
11830;BME280;5972;42.134;24.718;2022-12-07T07:50:23;99850.19;;;9.47;100.00
11830;BME280;5972;42.134;24.718;2022-12-07T07:52:51;99865.66;;;9.88;100.00
11830;BME280;5972;42.134;24.718;2022-12-07T07:55:18;99865.44;;;10.35;100.00
11830;BME280;5972;42.134;24.718;2022-12-07T07:57:44;99860.44;;;10.70;100.00
11830;BME280;5972;42.134;24.718;2022-12-07T08:00:14;99865.00;;;11.02;100.00
11830;BME280;5972;42.134;24.718;2022-12-07T08:02:42;99868.38;;;11.23;100.00
11830;BME280;5972;42.134;24.718;2022-12-07T08:05:10;99875.56;;;11.44;100.00
11830;BME280;5972;42.134;24.718;2022-12-07T08:07:37;99875.91;;;11.54;100.00
11830;BME280;5972;42.134;24.718;2022-12-07T08:10:05;99873.50;;;11.77;100.00
11830;BME280;5972;42.134;24.718;2022-12-07T08:12:35;99849.09;;;12.17;100.00
11830;BME280;5972;42.134;24.718;2022-12-07T08:15:02;99872.31;;;13.05;100.00
11830;BME280;5972;42.134;24.718;2022-12-07T08:17:30;99869.72;;;13.59;100.00
11830;BME280;5972;42.134;24.718;2022-12-07T08:19:57;99866.81;;;14.45;98.90
11830;BME280;5972;42.134;24.718;2022-12-07T08:22:24;99868.63;;;15.28;84.94
11830;BME280;5972;42.134;24.718;2022-12-07T08:24:51;99858.31;;;15.67;76.99
11830;BME280;5972;42.134;24.718;2022-12-07T08:27:18;99841.91;;;15.37;76.20
11830;BME280;5972;42.134;24.718;2022-12-07T08:29:44;99834.28;;;15.76;74.69
11830;BME280;5972;42.134;24.718;2022-12-07T08:32:11;99843.69;;;16.49;68.53
11830;BME280;5972;42.134;24.718;2022-12-07T08:34:39;99835.19;;;17.02;62.73
11830;BME280;5972;42.134;24.718;2022-12-07T08:37:06;99839.84;;;17.56;58.40
11830;BME280;5972;42.134;24.718;2022-12-07T08:39:33;99839.44;;;18.41;55.18
11830;BME280;5972;42.134;24.718;2022-12-07T08:42:00;99839.50;;;18.55;53.92
11830;BME280;5972;42.134;24.718;2022-12-07T08:44:27;99827.34;;;18.59;52.92
11830;BME280;5972;42.134;24.718;2022-12-07T08:46:56;99829.28;;;19.23;50.69
11830;BME280;5972;42.134;24.718;2022-12-07T08:49:27;99819.13;;;19.02;51.55
11830;BME280;5972;42.134;24.718;2022-12-07T08:51:56;99821.50;;;18.64;51.13
11830;BME280;5972;42.134;24.718;2022-12-07T08:54:23;99823.00;;;18.48;52.02
11830;BME280;5972;42.134;24.718;2022-12-07T08:56:50;99813.25;;;18.64;51.77
11830;BME280;5972;42.134;24.718;2022-12-07T08:59:17;99811.31;;;18.76;51.38
11830;BME280;5972;42.134;24.718;2022-12-07T09:01:45;99807.38;;;18.84;51.08
11830;BME280;5972;42.134;24.718;2022-12-07T09:04:12;99814.44;;;18.67;50.70
11830;BME280;5972;42.134;24.718;2022-12-07T09:06:40;99805.34;;;18.20;52.92
11830;BME280;5972;42.134;24.718;2022-12-07T09:09:09;99784.97;;;18.14;53.33
11830;BME280;5972;42.134;24.718;2022-12-07T09:11:38;99783.44;;;18.45;52.92
11830;BME280;5972;42.134;24.718;2022-12-07T09:14:05;99797.53;;;18.26;52.82
11830;BME280;5972;42.134;24.718;2022-12-07T09:16:32;99782.72;;;18.69;51.63
11830;BME280;5972;42.134;24.718;2022-12-07T09:18:59;99780.25;;;19.53;49.13
11830;BME280;5972;42.134;24.718;2022-12-07T09:21:26;99773.66;;;19.26;49.17
11830;BME280;5972;42.134;24.718;2022-12-07T09:23:52;99773.28;;;18.95;49.20
11830;BME280;5972;42.134;24.718;2022-12-07T09:26:21;99765.44;;;19.08;49.18
11830;BME280;5972;42.134;24.718;2022-12-07T09:28:48;99759.25;;;18.72;49.45
11830;BME280;5972;42.134;24.718;2022-12-07T09:31:14;99758.81;;;18.84;50.35
11830;BME280;5972;42.134;24.718;2022-12-07T09:33:41;99758.72;;;19.48;48.48
11830;BME280;5972;42.134;24.718;2022-12-07T09:36:08;99752.91;;;19.07;48.09
11830;BME280;5972;42.134;24.718;2022-12-07T09:38:35;99727.41;;;17.90;51.38
11830;BME280;5972;42.134;24.718;2022-12-07T09:41:05;99738.03;;;18.30;51.07
11830;BME280;5972;42.134;24.718;2022-12-07T09:43:34;99746.13;;;17.70;53.82
11830;BME280;5972;42.134;24.718;2022-12-07T09:46:02;99722.66;;;17.65;52.79
11830;BME280;5972;42.134;24.718;2022-12-07T09:48:31;99713.69;;;17.72;53.90
11830;BME280;5972;42.134;24.718;2022-12-07T09:51:01;99729.72;;;17.70;54.22
11830;BME280;5972;42.134;24.718;2022-12-07T09:53:32;99694.00;;;17.38;54.61
11830;BME280;5972;42.134;24.718;2022-12-07T09:56:00;99718.63;;;17.41;55.93
11830;BME280;5972;42.134;24.718;2022-12-07T09:58:28;99711.31;;;17.60;55.59
11830;BME280;5972;42.134;24.718;2022-12-07T10:01:00;99714.56;;;18.18;53.45
11830;BME280;5972;42.134;24.718;2022-12-07T10:03:27;99722.38;;;18.84;51.34
11830;BME280;5972;42.134;24.718;2022-12-07T10:05:55;99719.63;;;18.13;52.07
11830;BME280;5972;42.134;24.718;2022-12-07T10:08:22;99705.16;;;18.34;51.24
11830;BME280;5972;42.134;24.718;2022-12-07T10:10:51;99726.28;;;18.97;49.65
11830;BME280;5972;42.134;24.718;2022-12-07T10:13:21;99718.44;;;19.02;49.14
11830;BME280;5972;42.134;24.718;2022-12-07T10:15:50;99715.28;;;19.15;48.31
11830;BME280;5972;42.134;24.718;2022-12-07T10:18:31;99716.16;;;18.83;47.48
11830;BME280;5972;42.134;24.718;2022-12-07T10:21:09;99701.22;;;18.06;50.06
11830;BME280;5972;42.134;24.718;2022-12-07T10:23:39;99706.03;;;17.19;52.26
11830;BME280;5972;42.134;24.718;2022-12-07T10:26:28;99688.66;;;16.36;57.52
11830;BME280;5972;42.134;24.718;2022-12-07T10:28:56;99657.78;;;16.28;58.60
11830;BME280;5972;42.134;24.718;2022-12-07T10:31:25;99688.72;;;16.43;60.01
11830;BME280;5972;42.134;24.718;2022-12-07T10:33:55;99673.44;;;16.35;59.58
11830;BME280;5972;42.134;24.718;2022-12-07T10:36:24;99677.06;;;16.02;61.53
11830;BME280;5972;42.134;24.718;2022-12-07T10:38:53;99660.41;;;16.14;60.88
11830;BME280;5972;42.134;24.718;2022-12-07T10:41:25;99670.94;;;16.59;58.27
11830;BME280;5972;42.134;24.718;2022-12-07T10:43:53;99685.00;;;17.41;55.16
11830;BME280;5972;42.134;24.718;2022-12-07T10:52:48;99689.91;;;18.50;49.89
11830;BME280;5972;42.134;24.718;2022-12-07T10:55:22;99688.38;;;17.06;52.66
11830;BME280;5972;42.134;24.718;2022-12-07T10:58:21;99676.72;;;16.58;58.26
11830;BME280;5972;42.134;24.718;2022-12-07T11:00:59;99678.19;;;16.99;57.67
11830;BME280;5972;42.134;24.718;2022-12-07T11:03:42;99683.03;;;16.14;62.60
11830;BME280;5972;42.134;24.718;2022-12-07T11:06:22;99666.41;;;15.90;65.25
11830;BME280;5972;42.134;24.718;2022-12-07T11:09:01;99668.19;;;15.08;69.70
11830;BME280;5972;42.134;24.718;2022-12-07T11:11:33;99666.28;;;14.82;74.10
11830;BME280;5972;42.134;24.718;2022-12-07T11:14:07;99655.38;;;14.52;78.51
11830;BME280;5972;42.134;24.718;2022-12-07T11:16:49;99659.56;;;14.46;80.64
11830;BME280;5972;42.134;24.718;2022-12-07T11:19:41;99644.19;;;13.89;86.74
11830;BME280;5972;42.134;24.718;2022-12-07T11:22:19;99641.03;;;14.10;87.54
11830;BME280;5972;42.134;24.718;2022-12-07T11:24:54;99653.31;;;14.00;89.56
11830;BME280;5972;42.134;24.718;2022-12-07T11:27:30;99648.50;;;13.90;91.49
11830;BME280;5972;42.134;24.718;2022-12-07T11:30:10;99643.97;;;13.75;92.57
11830;BME280;5972;42.134;24.718;2022-12-07T11:32:53;99643.81;;;13.68;92.62
11830;BME280;5972;42.134;24.718;2022-12-07T11:35:32;99632.41;;;13.40;95.36
11830;BME280;5972;42.134;24.718;2022-12-07T11:38:10;99642.75;;;13.30;97.81
11830;BME280;5972;42.134;24.718;2022-12-07T11:40:40;99625.72;;;13.14;100.00
11830;BME280;5972;42.134;24.718;2022-12-07T11:43:17;99631.88;;;13.30;100.00
11830;BME280;5972;42.134;24.718;2022-12-07T11:45:49;99629.97;;;12.96;100.00
11830;BME280;5972;42.134;24.718;2022-12-07T11:48:24;99623.09;;;12.83;100.00
11830;BME280;5972;42.134;24.718;2022-12-07T11:50:57;99621.97;;;13.03;100.00
11830;BME280;5972;42.134;24.718;2022-12-07T11:53:26;99618.31;;;12.96;100.00
11830;BME280;5972;42.134;24.718;2022-12-07T11:55:57;99606.22;;;12.93;100.00
11830;BME280;5972;42.134;24.718;2022-12-07T11:58:40;99605.81;;;12.91;100.00
11830;BME280;5972;42.134;24.718;2022-12-07T12:01:15;99603.44;;;12.89;100.00
11830;BME280;5972;42.134;24.718;2022-12-07T12:03:48;99607.25;;;12.50;100.00
11830;BME280;5972;42.134;24.718;2022-12-07T12:06:15;99606.94;;;12.71;100.00
11830;BME280;5972;42.134;24.718;2022-12-07T12:08:46;99599.09;;;13.04;100.00
11830;BME280;5972;42.134;24.718;2022-12-07T12:11:25;99591.31;;;13.03;100.00
11830;BME280;5972;42.134;24.718;2022-12-07T12:14:22;99596.81;;;12.87;100.00
11830;BME280;5972;42.134;24.718;2022-12-07T12:17:05;99590.38;;;12.76;100.00
11830;BME280;5972;42.134;24.718;2022-12-07T12:19:41;99597.06;;;12.63;100.00
11830;BME280;5972;42.134;24.718;2022-12-07T12:22:14;99590.66;;;12.90;100.00
11830;BME280;5972;42.134;24.718;2022-12-07T12:24:43;99591.94;;;12.77;100.00
11830;BME280;5972;42.134;24.718;2022-12-07T12:27:20;99592.09;;;12.65;100.00
11830;BME280;5972;42.134;24.718;2022-12-07T12:29:53;99593.09;;;12.76;100.00
11830;BME280;5972;42.134;24.718;2022-12-07T12:32:22;99579.88;;;12.74;100.00
11830;BME280;5972;42.134;24.718;2022-12-07T12:35:20;99577.84;;;12.52;100.00
11830;BME280;5972;42.134;24.718;2022-12-07T12:37:49;99571.41;;;12.60;100.00
11830;BME280;5972;42.134;24.718;2022-12-07T12:40:51;99572.28;;;12.64;100.00
11830;BME280;5972;42.134;24.718;2022-12-07T12:46:48;99564.84;;;12.61;100.00
11830;BME280;5972;42.134;24.718;2022-12-07T12:49:39;99565.00;;;12.33;100.00
11830;BME280;5972;42.134;24.718;2022-12-07T12:55:17;99561.63;;;12.36;100.00
11830;BME280;5972;42.134;24.718;2022-12-07T12:57:47;99555.97;;;12.45;100.00
11830;BME280;5972;42.134;24.718;2022-12-07T13:00:19;99563.94;;;12.38;100.00
11830;BME280;5972;42.134;24.718;2022-12-07T13:02:52;99560.34;;;12.49;100.00
11830;BME280;5972;42.134;24.718;2022-12-07T13:05:20;99563.03;;;12.49;100.00
11830;BME280;5972;42.134;24.718;2022-12-07T13:07:54;99558.81;;;12.33;100.00
11830;BME280;5972;42.134;24.718;2022-12-07T13:10:33;99550.78;;;12.21;100.00
11830;BME280;5972;42.134;24.718;2022-12-07T13:13:04;99538.38;;;12.20;100.00
11830;BME280;5972;42.134;24.718;2022-12-07T13:15:33;99558.28;;;12.27;100.00
11830;BME280;5972;42.134;24.718;2022-12-07T13:18:23;99542.06;;;12.12;100.00
11830;BME280;5972;42.134;24.718;2022-12-07T13:20:52;99553.06;;;12.19;100.00
11830;BME280;5972;42.134;24.718;2022-12-07T13:23:23;99547.53;;;12.15;100.00
11830;BME280;5972;42.134;24.718;2022-12-07T13:25:55;99557.72;;;12.18;100.00